Main page
METAR-TAF:

METAR-TAF

Airports :

Landsberg-Lech Air Base

Landsberg, Germany

latitude: 48-04N, longitude: 010-54E, elevation: 623 m

Current weather observation

The report was made 25 minutes ago, at 16:20 UTC
Wind 5 kt from the North/Northeast
Temperature 26°C
Humidity 45%
Pressure 1020 hPa
Visibility: 6000 m

METAR: ETSA 201620Z AUTO 02005KT 6000 // ////// 26/13 Q1020 ///

Time: 18:45 (16:45 UTC)


TAF: missing

Weather observations and forecasts of more than 4000 airports (METAR and TAF reports).

The available stations are represented by yellow and red dots on the map.

Hover mouse over dot to see the name of the station.

Then click to see weather observations and forecasts.

To change the map : click on the green buttons with a black cross to zoom in, on the green button with a dash to zoom out, or on the green arrows for adjacent maps.


METAR-TAF: